Time;durP1;ratioP1;P1;durP2;ratioP2;P2;SDS_P1;SDS_P2;PMS_P1;PMS_P2;Temp;Humidity;BMP_temperature;BMP_pressure;BME280_temperature;BME280_humidity;BME280_pressure;Samples;Min_cycle;Max_cycle;Signal;HPM_P1;HPM_P2
2021/04/28 00:01:58;;;;;;;12.82;5.65;;;9.10;1.00;;;;;;5022985;28;20054;-66
2021/04/28 00:04:45;;;;;;;8.93;5.38;;;9.00;1.00;;;;;;5019231;28;20136;-65
2021/04/28 00:07:32;;;;;;;6.43;5.32;;;9.00;1.00;;;;;;5020341;28;20042;-64
2021/04/28 00:10:24;;;;;;;10.45;6.00;;;8.90;1.00;;;;;;5030302;28;20077;-65
2021/04/28 00:13:13;;;;;;;7.15;4.70;;;8.80;1.00;;;;;;5020322;28;20057;-65
2021/04/28 00:16:01;;;;;;;8.85;5.25;;;8.80;1.00;;;;;;5023406;28;20045;-65
2021/04/28 00:18:49;;;;;;;6.95;5.28;;;8.70;1.00;;;;;;5030675;28;20217;-65
2021/04/28 00:21:37;;;;;;;8.52;5.78;;;8.70;1.00;;;;;;5030211;28;20411;-64
2021/04/28 00:24:24;;;;;;;9.43;5.90;;;8.80;1.00;;;;;;5018937;28;20787;-65
2021/04/28 00:27:11;;;;;;;11.38;6.25;;;8.70;1.00;;;;;;5023801;28;20425;-65
2021/04/28 00:29:58;;;;;;;8.25;5.47;;;8.60;1.00;;;;;;5026239;28;20136;-64
2021/04/28 00:32:46;;;;;;;10.73;5.80;;;8.60;1.00;;;;;;5020512;28;20555;-65
2021/04/28 00:35:34;;;;;;;10.60;5.80;;;8.60;1.00;;;;;;5022573;28;20764;-65
2021/04/28 00:38:21;;;;;;;10.65;5.65;;;8.60;1.00;;;;;;5028133;28;20040;-65
2021/04/28 00:41:09;;;;;;;11.63;6.13;;;8.60;1.00;;;;;;5028639;28;20073;-64
2021/04/28 00:43:57;;;;;;;9.15;5.55;;;8.60;1.00;;;;;;5022567;28;20106;-64
2021/04/28 00:46:45;;;;;;;9.35;5.65;;;8.50;1.00;;;;;;5027909;28;20440;-65
2021/04/28 00:49:33;;;;;;;6.95;5.15;;;8.50;1.00;;;;;;5028255;28;20049;-65
2021/04/28 00:52:21;;;;;;;10.73;5.85;;;8.50;1.00;;;;;;5022160;28;20187;-65
2021/04/28 00:55:10;;;;;;;9.65;5.32;;;8.50;1.00;;;;;;5028890;28;20041;-64
2021/04/28 00:57:57;;;;;;;10.45;5.88;;;8.50;1.00;;;;;;5025906;28;20168;-64
2021/04/28 01:00:46;;;;;;;11.43;5.82;;;8.40;1.00;;;;;;5034714;28;20043;-64
2021/04/28 01:03:34;;;;;;;10.40;5.40;;;8.40;1.00;;;;;;5027780;28;20179;-64
2021/04/28 01:06:22;;;;;;;9.18;6.15;;;8.30;1.00;;;;;;5023069;28;20412;-64
2021/04/28 01:09:12;;;;;;;8.50;5.75;;;8.40;1.00;;;;;;5026923;28;20470;-64
2021/04/28 01:12:00;;;;;;;8.85;6.00;;;8.50;1.00;;;;;;5027258;28;20121;-65
2021/04/28 01:14:48;;;;;;;9.85;6.15;;;8.50;1.00;;;;;;5031684;28;20557;-64
2021/04/28 01:17:36;;;;;;;9.93;6.05;;;8.40;1.00;;;;;;5026438;28;20087;-64
2021/04/28 01:20:25;;;;;;;8.00;5.50;;;8.40;1.00;;;;;;5030899;28;20390;-64
2021/04/28 01:23:16;;;;;;;8.48;5.75;;;8.40;1.00;;;;;;5026036;28;20458;-64
2021/04/28 01:26:05;;;;;;;11.95;6.05;;;8.30;1.00;;;;;;5031119;28;20479;-65
2021/04/28 01:28:52;;;;;;;8.45;6.15;;;8.20;1.00;;;;;;5027090;28;20045;-65
2021/04/28 01:31:40;;;;;;;9.85;5.53;;;8.10;1.00;;;;;;5035005;28;20046;-65
2021/04/28 01:34:29;;;;;;;10.23;6.07;;;8.00;1.00;;;;;;5029034;28;20183;-65
2021/04/28 01:37:18;;;;;;;10.02;5.82;;;7.90;1.00;;;;;;5025648;28;20040;-65
2021/04/28 01:40:08;;;;;;;11.57;6.75;;;7.90;1.00;;;;;;5028567;28;20074;-65
2021/04/28 01:42:56;;;;;;;9.07;5.70;;;7.80;1.00;;;;;;5009629;28;20259;-65
2021/04/28 01:45:44;;;;;;;13.43;6.03;;;7.80;1.00;;;;;;5023677;28;20162;-65
2021/04/28 01:48:32;;;;;;;8.70;6.45;;;7.80;1.00;;;;;;5031110;28;20076;-65
2021/04/28 01:51:20;;;;;;;9.82;6.50;;;7.80;1.00;;;;;;5029709;28;20506;-65
2021/04/28 01:54:10;;;;;;;14.68;7.13;;;7.80;1.00;;;;;;5028802;28;20072;-65
2021/04/28 01:56:58;;;;;;;10.43;5.85;;;7.80;1.00;;;;;;5027983;28;20065;-65
2021/04/28 01:59:48;;;;;;;19.40;6.93;;;7.70;1.00;;;;;;5024066;28;20068;-65
2021/04/28 02:02:37;;;;;;;7.68;5.80;;;7.70;1.00;;;;;;5025927;28;20047;-65
2021/04/28 02:05:24;;;;;;;9.38;6.40;;;7.70;1.00;;;;;;5032847;28;20037;-64
2021/04/28 02:08:12;;;;;;;10.38;5.72;;;7.60;1.00;;;;;;5032055;28;20368;-65
2021/04/28 02:11:00;;;;;;;10.63;6.38;;;7.60;1.00;;;;;;5028483;28;20723;-64
2021/04/28 02:13:49;;;;;;;10.50;6.43;;;7.60;1.00;;;;;;5029020;28;20140;-65
2021/04/28 02:16:40;;;;;;;9.20;6.50;;;7.60;1.00;;;;;;5033780;28;20080;-65
2021/04/28 02:19:28;;;;;;;23.23;6.55;;;7.70;1.00;;;;;;5034911;28;20041;-65
2021/04/28 02:22:16;;;;;;;9.80;6.72;;;7.70;1.00;;;;;;5028818;28;20928;-65
2021/04/28 02:25:05;;;;;;;10.50;6.38;;;7.70;1.00;;;;;;5028243;28;20076;-65
2021/04/28 02:27:53;;;;;;;11.02;6.50;;;7.70;1.00;;;;;;5025832;28;20124;-65
2021/04/28 02:30:41;;;;;;;8.52;6.05;;;7.60;1.00;;;;;;5035012;28;20072;-65
2021/04/28 02:33:29;;;;;;;11.25;6.68;;;7.60;1.00;;;;;;5031449;28;20632;-66
2021/04/28 02:36:17;;;;;;;12.38;6.88;;;7.60;1.00;;;;;;5030693;28;20069;-65
2021/04/28 02:39:10;;;;;;;9.05;6.30;;;7.60;1.00;;;;;;5036089;28;20461;-65
2021/04/28 02:41:58;;;;;;;9.93;7.32;;;7.50;1.00;;;;;;5031412;28;20045;-64
2021/04/28 02:44:47;;;;;;;10.85;5.97;;;7.50;1.00;;;;;;5030471;28;20395;-65
2021/04/28 02:47:36;;;;;;;9.52;6.15;;;7.50;1.00;;;;;;5027875;28;20040;-65
2021/04/28 02:50:27;;;;;;;13.85;7.22;;;7.40;1.00;;;;;;5035377;28;20040;-65
2021/04/28 02:53:16;;;;;;;10.95;6.50;;;7.40;1.00;;;;;;5033295;28;20037;-65
2021/04/28 02:56:04;;;;;;;10.27;6.32;;;7.40;1.00;;;;;;5028236;28;20154;-65
2021/04/28 02:58:52;;;;;;;10.43;6.47;;;7.50;1.00;;;;;;5028363;28;20088;-65
2021/04/28 03:01:40;;;;;;;12.63;6.05;;;7.60;1.00;;;;;;5034264;28;21112;-65
2021/04/28 03:04:29;;;;;;;11.45;6.22;;;7.60;1.00;;;;;;5031025;28;20063;-65
2021/04/28 03:07:17;;;;;;;13.05;7.03;;;7.60;1.00;;;;;;5032779;28;20714;-65
2021/04/28 03:10:05;;;;;;;10.23;6.47;;;7.60;1.00;;;;;;5030199;28;20056;-65
2021/04/28 03:12:53;;;;;;;10.05;6.88;;;7.60;1.00;;;;;;5024966;28;20521;-65
2021/04/28 03:15:40;;;;;;;12.00;6.75;;;7.70;1.00;;;;;;5027110;28;20409;-65
2021/04/28 03:18:28;;;;;;;10.63;6.45;;;7.70;1.00;;;;;;5028007;28;20137;-65
2021/04/28 03:21:18;;;;;;;8.35;6.03;;;7.70;1.00;;;;;;5034903;28;20053;-65
2021/04/28 03:24:06;;;;;;;11.48;6.93;;;7.60;1.00;;;;;;5021813;28;20038;-65
2021/04/28 03:27:06;;;;;;;11.02;6.00;;;7.70;1.00;;;;;;5031165;28;20418;-65
2021/04/28 03:29:54;;;;;;;12.35;6.30;;;7.60;1.00;;;;;;5037424;28;20474;-65
2021/04/28 03:32:41;;;;;;;9.77;6.55;;;7.60;1.00;;;;;;5028881;28;20091;-65
2021/04/28 03:35:29;;;;;;;9.05;6.63;;;7.60;1.00;;;;;;5030186;28;20048;-65
2021/04/28 03:38:17;;;;;;;10.93;6.53;;;7.70;1.00;;;;;;5033267;28;20162;-65
2021/04/28 03:41:04;;;;;;;11.32;6.93;;;7.70;1.00;;;;;;5030499;28;20045;-65
2021/04/28 03:43:52;;;;;;;14.63;6.78;;;7.80;1.00;;;;;;5027844;28;20053;-65
2021/04/28 03:46:39;;;;;;;8.85;6.03;;;7.80;1.00;;;;;;5026448;28;20049;-65
2021/04/28 03:49:26;;;;;;;19.58;7.43;;;7.80;1.00;;;;;;5031336;28;20079;-66
2021/04/28 03:52:14;;;;;;;10.25;6.28;;;7.90;1.00;;;;;;5027627;28;20057;-65
2021/04/28 03:55:02;;;;;;;10.07;6.65;;;7.80;1.00;;;;;;5027764;28;20220;-65
2021/04/28 03:57:49;;;;;;;9.90;6.53;;;7.90;1.00;;;;;;5029864;28;20049;-65
2021/04/28 04:00:36;;;;;;;12.38;6.53;;;7.90;1.00;;;;;;5033617;28;20058;-65
2021/04/28 04:03:25;;;;;;;11.65;6.68;;;7.90;1.00;;;;;;5023694;28;20145;-65
2021/04/28 04:06:13;;;;;;;10.75;6.25;;;7.80;1.00;;;;;;5029953;28;20052;-65
2021/04/28 04:09:00;;;;;;;13.93;7.57;;;7.80;1.00;;;;;;5030769;28;20116;-65
2021/04/28 04:11:49;;;;;;;11.93;7.70;;;7.80;1.00;;;;;;5029925;28;20052;-65
2021/04/28 04:14:36;;;;;;;11.10;6.70;;;7.90;1.00;;;;;;5029977;28;20580;-65
2021/04/28 04:17:23;;;;;;;11.73;7.40;;;7.90;1.00;;;;;;5027754;28;20072;-65
2021/04/28 04:20:11;;;;;;;14.95;8.02;;;7.90;1.00;;;;;;5035768;28;20199;-65
2021/04/28 04:22:58;;;;;;;11.52;7.45;;;7.90;1.00;;;;;;5029606;28;20051;-65
2021/04/28 04:25:46;;;;;;;12.65;6.78;;;8.10;1.00;;;;;;5030583;28;20148;-65
2021/04/28 04:28:34;;;;;;;12.93;7.00;;;8.30;1.00;;;;;;5032395;28;20485;-65
2021/04/28 04:31:21;;;;;;;15.15;7.13;;;8.60;1.00;;;;;;5037558;28;20072;-64
2021/04/28 04:34:09;;;;;;;12.95;7.55;;;9.10;1.00;;;;;;5025945;28;20060;-65
2021/04/28 04:36:56;;;;;;;13.75;7.38;;;9.40;1.00;;;;;;5024206;28;20178;-65
2021/04/28 04:39:43;;;;;;;15.70;8.02;;;9.60;1.00;;;;;;5025617;28;20084;-65
2021/04/28 04:42:30;;;;;;;16.08;7.32;;;9.90;1.00;;;;;;5027117;28;20477;-65
2021/04/28 04:45:18;;;;;;;13.00;7.90;;;10.30;1.00;;;;;;5026870;28;20124;-65
2021/04/28 04:48:07;;;;;;;15.10;6.93;;;10.60;1.00;;;;;;5027350;28;20129;-65
2021/04/28 04:50:55;;;;;;;19.25;8.48;;;10.70;1.00;;;;;;5033145;28;20203;-65
2021/04/28 04:53:42;;;;;;;16.23;7.35;;;10.90;1.00;;;;;;5025742;28;20053;-65
2021/04/28 04:56:29;;;;;;;15.85;8.30;;;11.40;1.00;;;;;;5024729;28;20166;-65
2021/04/28 04:59:17;;;;;;;20.40;9.27;;;11.30;1.00;;;;;;5029115;28;20610;-65
2021/04/28 05:02:05;;;;;;;14.05;7.63;;;11.40;1.00;;;;;;5030367;28;20582;-65
2021/04/28 05:04:53;;;;;;;19.58;9.75;;;11.30;1.00;;;;;;5027614;28;20466;-64
2021/04/28 05:07:41;;;;;;;17.38;8.88;;;11.80;1.00;;;;;;5023175;28;20118;-63
2021/04/28 05:10:28;;;;;;;16.42;9.25;;;12.10;1.00;;;;;;5027441;28;20045;-64
2021/04/28 05:13:15;;;;;;;18.92;9.93;;;12.00;1.00;;;;;;5024203;28;20463;-64
2021/04/28 05:16:03;;;;;;;15.90;9.98;;;12.50;1.00;;;;;;5026946;28;20521;-65
2021/04/28 05:18:52;;;;;;;17.25;10.02;;;13.10;1.00;;;;;;5033642;28;20255;-64
2021/04/28 05:21:40;;;;;;;15.63;10.38;;;12.90;1.00;;;;;;5032402;28;20124;-64
2021/04/28 05:24:27;;;;;;;20.15;10.48;;;13.70;1.00;;;;;;5028148;28;20048;-65
2021/04/28 05:27:14;;;;;;;16.88;10.43;;;13.40;1.00;;;;;;5023749;28;20044;-65
2021/04/28 05:30:01;;;;;;;21.98;10.48;;;14.20;1.00;;;;;;5032742;28;20130;-65
2021/04/28 05:32:49;;;;;;;18.90;10.90;;;14.20;1.00;;;;;;5028753;28;20130;-65
2021/04/28 05:35:37;;;;;;;16.63;10.43;;;13.90;1.00;;;;;;5028943;28;20421;-65
2021/04/28 05:38:24;;;;;;;22.52;11.30;;;14.60;1.00;;;;;;5032077;28;20406;-64
2021/04/28 05:41:12;;;;;;;21.60;11.48;;;14.20;1.00;;;;;;5028370;28;20045;-64
2021/04/28 05:43:59;;;;;;;23.42;10.88;;;13.70;1.00;;;;;;5026540;28;20049;-65
2021/04/28 05:46:46;;;;;;;27.08;11.48;;;12.20;1.00;;;;;;5026972;28;20171;-66
2021/04/28 05:49:34;;;;;;;21.23;10.30;;;11.30;1.00;;;;;;5029577;28;20266;-66
2021/04/28 05:52:22;;;;;;;15.35;9.23;;;11.50;1.00;;;;;;5027814;28;20125;-66
2021/04/28 05:55:11;;;;;;;15.13;9.90;;;11.50;1.00;;;;;;5034142;28;20049;-66
2021/04/28 05:57:58;;;;;;;16.42;10.18;;;11.40;1.00;;;;;;5032227;28;20432;-64
2021/04/28 06:00:45;;;;;;;16.60;8.88;;;11.60;1.00;;;;;;5033170;28;20049;-65
2021/04/28 06:03:32;;;;;;;16.45;8.90;;;11.80;1.00;;;;;;5030855;28;20483;-65
2021/04/28 06:06:20;;;;;;;14.55;8.65;;;11.70;1.00;;;;;;5032462;28;20060;-66
2021/04/28 06:09:08;;;;;;;13.90;9.35;;;12.00;1.00;;;;;;5029463;28;20172;-65
2021/04/28 06:11:55;;;;;;;19.33;10.75;;;12.00;1.00;;;;;;5033549;28;20146;-66
2021/04/28 06:14:43;;;;;;;15.02;9.48;;;11.90;1.00;;;;;;5031409;28;20044;-64
2021/04/28 06:17:32;;;;;;;18.92;10.85;;;12.20;1.00;;;;;;5035761;28;20051;-64
2021/04/28 06:20:19;;;;;;;14.93;9.43;;;12.10;1.00;;;;;;5040106;28;20093;-65
2021/04/28 06:23:06;;;;;;;14.90;9.18;;;12.10;1.00;;;;;;5029194;28;20132;-64
2021/04/28 06:25:55;;;;;;;19.05;10.07;;;12.20;1.00;;;;;;5035400;28;20119;-65
2021/04/28 06:28:42;;;;;;;15.02;9.52;;;12.40;1.00;;;;;;5031183;28;20101;-65
2021/04/28 06:31:29;;;;;;;15.85;9.30;;;12.30;1.00;;;;;;5035515;28;20049;-64
2021/04/28 06:34:17;;;;;;;13.00;9.07;;;12.50;1.00;;;;;;5033043;28;20049;-67
2021/04/28 06:37:04;;;;;;;15.23;9.93;;;12.50;1.00;;;;;;5033096;28;20593;-65
2021/04/28 06:39:51;;;;;;;24.33;10.43;;;12.50;1.00;;;;;;5030022;28;20127;-66
2021/04/28 06:42:39;;;;;;;12.57;8.43;;;12.70;1.00;;;;;;5030641;28;21476;-65
2021/04/28 06:45:26;;;;;;;15.75;9.73;;;12.50;1.00;;;;;;5034110;28;20057;-65
2021/04/28 06:48:14;;;;;;;15.15;9.82;;;12.60;1.00;;;;;;5029315;28;20461;-64
2021/04/28 06:51:02;;;;;;;12.18;9.38;;;12.80;1.00;;;;;;5032489;28;21712;-64
2021/04/28 06:53:49;;;;;;;20.45;10.20;;;12.80;1.00;;;;;;5034203;28;20053;-65
2021/04/28 06:56:41;;;;;;;15.70;9.60;;;12.70;1.00;;;;;;5032661;28;20151;-65
2021/04/28 06:59:29;;;;;;;14.77;9.70;;;13.00;1.00;;;;;;5029783;28;20042;-64
2021/04/28 07:02:16;;;;;;;19.95;10.57;;;13.20;1.00;;;;;;5030591;28;20084;-65
2021/04/28 07:05:04;;;;;;;15.95;10.13;;;13.30;1.00;;;;;;5031815;28;20056;-65
2021/04/28 07:07:52;;;;;;;17.75;10.10;;;13.40;1.00;;;;;;5032632;28;20128;-65
2021/04/28 07:10:40;;;;;;;14.23;10.57;;;13.80;1.00;;;;;;5034255;28;20756;-66
2021/04/28 07:13:28;;;;;;;15.57;10.10;;;13.90;1.00;;;;;;5029518;28;20053;-66
2021/04/28 07:16:16;;;;;;;15.48;10.00;;;13.90;1.00;;;;;;5028785;28;20167;-66
2021/04/28 07:19:03;;;;;;;18.25;11.32;;;14.30;1.00;;;;;;5030728;28;20506;-66
2021/04/28 07:21:51;;;;;;;16.40;9.73;;;14.30;1.00;;;;;;5025763;28;20445;-65
2021/04/28 07:24:38;;;;;;;15.18;9.57;;;14.40;1.00;;;;;;5036519;28;20077;-65
2021/04/28 07:27:25;;;;;;;16.05;9.80;;;14.60;1.00;;;;;;5027076;28;20252;-66
2021/04/28 07:30:15;;;;;;;16.33;10.15;;;15.10;1.00;;;;;;5032423;28;20533;-65
2021/04/28 07:33:03;;;;;;;18.48;10.90;;;15.10;1.00;;;;;;5028209;28;20090;-64
2021/04/28 07:35:51;;;;;;;14.95;9.85;;;14.10;1.00;;;;;;5034335;28;20049;-65
2021/04/28 07:38:38;;;;;;;14.80;9.88;;;14.20;1.00;;;;;;5031127;28;20091;-65
2021/04/28 07:41:25;;;;;;;18.67;11.18;;;14.30;1.00;;;;;;5031868;28;20076;-65
2021/04/28 07:44:14;;;;;;;21.90;10.45;;;14.50;1.00;;;;;;5028059;28;20132;-65
2021/04/28 07:47:02;;;;;;;15.00;9.48;;;14.40;1.00;;;;;;5028087;28;20045;-65
2021/04/28 07:49:50;;;;;;;18.20;10.23;;;14.80;1.00;;;;;;5029973;28;20505;-65
2021/04/28 07:52:39;;;;;;;17.48;11.30;;;14.40;1.00;;;;;;5031089;28;20049;-64
2021/04/28 07:55:27;;;;;;;19.08;11.20;;;14.50;1.00;;;;;;5032638;28;20037;-65
2021/04/28 07:58:14;;;;;;;20.15;10.10;;;14.60;1.00;;;;;;5028868;28;20120;-65
2021/04/28 08:01:01;;;;;;;15.88;10.27;;;14.90;1.00;;;;;;5027404;28;20494;-66
2021/04/28 08:03:49;;;;;;;21.33;10.15;;;15.00;1.00;;;;;;5029286;28;20100;-66
2021/04/28 08:06:37;;;;;;;14.80;9.98;;;15.00;1.00;;;;;;5027443;28;20128;-66
2021/04/28 08:09:24;;;;;;;21.83;10.40;;;15.30;1.00;;;;;;5034674;28;20792;-66
2021/04/28 08:12:11;;;;;;;17.95;10.90;;;15.50;1.00;;;;;;5021452;28;20131;-66
2021/04/28 08:14:59;;;;;;;17.35;10.23;;;15.70;1.00;;;;;;5037079;28;20045;-66
2021/04/28 08:17:47;;;;;;;17.52;10.85;;;15.80;1.00;;;;;;5029186;28;20614;-66
2021/04/28 08:20:35;;;;;;;20.00;10.68;;;15.70;1.00;;;;;;5030711;28;20115;-66
2021/04/28 08:23:29;;;;;;;17.02;10.82;;;15.80;1.00;;;;;;5028967;28;20422;-66
2021/04/28 08:26:16;;;;;;;16.38;10.35;;;16.00;1.00;;;;;;5029739;28;20128;-66
2021/04/28 08:29:04;;;;;;;17.85;10.13;;;15.80;1.00;;;;;;5030971;28;20157;-65
2021/04/28 08:31:51;;;;;;;16.98;11.20;;;15.60;1.00;;;;;;5030287;28;20271;-64
2021/04/28 08:34:39;;;;;;;17.27;11.07;;;15.80;1.00;;;;;;5035352;28;20045;-65
2021/04/28 08:37:26;;;;;;;21.08;11.02;;;16.10;1.00;;;;;;5029626;28;20148;-65
2021/04/28 08:40:16;;;;;;;20.50;10.55;;;16.50;1.00;;;;;;5033066;28;20123;-65
2021/04/28 08:43:04;;;;;;;16.13;10.80;;;16.60;1.00;;;;;;5028904;28;20057;-66
2021/04/28 08:45:53;;;;;;;18.80;11.38;;;16.50;1.00;;;;;;5033678;28;20215;-66
2021/04/28 08:48:40;;;;;;;16.95;11.60;;;16.80;1.00;;;;;;5031956;28;20037;-65
2021/04/28 08:51:28;;;;;;;19.10;10.45;;;16.80;1.00;;;;;;5031438;28;20190;-65
2021/04/28 08:54:19;;;;;;;17.08;11.80;;;16.80;1.00;;;;;;5026291;28;20042;-66
2021/04/28 08:57:08;;;;;;;17.15;11.43;;;16.90;1.00;;;;;;5027986;28;20390;-66
2021/04/28 08:59:55;;;;;;;17.02;10.88;;;16.80;1.00;;;;;;5027327;28;20179;-65
2021/04/28 09:02:52;;;;;;;17.50;12.00;;;16.70;1.00;;;;;;5029895;28;20052;-64
2021/04/28 09:05:40;;;;;;;20.52;12.23;;;17.40;1.00;;;;;;5035245;28;20045;-67
2021/04/28 09:08:28;;;;;;;19.23;11.85;;;17.10;1.00;;;;;;5029884;28;20037;-64
2021/04/28 09:11:34;;;;;;;16.23;11.13;;;17.20;1.00;;;;;;5032366;28;20441;-65
2021/04/28 09:14:24;;;;;;;17.23;11.20;;;17.30;1.00;;;;;;5029851;28;20076;-65
2021/04/28 09:17:11;;;;;;;21.50;11.68;;;17.70;1.00;;;;;;5026051;28;20412;-65
2021/04/28 09:20:15;;;;;;;33.67;22.02;;;17.90;1.00;;;;;;5035958;28;20045;-65
2021/04/28 09:23:09;;;;;;;19.10;11.63;;;18.10;1.00;;;;;;5030079;28;20037;-66
2021/04/28 09:26:03;;;;;;;19.45;12.02;;;18.10;1.00;;;;;;5041918;28;20087;-66
2021/04/28 09:28:52;;;;;;;19.58;12.18;;;17.90;1.00;;;;;;5035043;28;20041;-66
2021/04/28 09:31:57;;;;;;;18.20;11.50;;;18.00;1.00;;;;;;5036418;28;20045;-65
2021/04/28 09:34:44;;;;;;;25.15;11.73;;;18.60;1.00;;;;;;5038201;28;20046;-65
2021/04/28 09:37:31;;;;;;;17.45;11.25;;;18.00;1.00;;;;;;5034905;28;20041;-65
2021/04/28 09:40:19;;;;;;;20.65;11.88;;;18.20;1.00;;;;;;5033380;28;20502;-65
2021/04/28 09:43:06;;;;;;;17.88;11.23;;;18.30;1.00;;;;;;5029648;28;20051;-65
2021/04/28 09:45:54;;;;;;;20.88;11.48;;;18.10;1.00;;;;;;5030548;28;20045;-66
2021/04/28 09:48:58;;;;;;;21.13;11.55;;;18.20;1.00;;;;;;5033098;28;20036;-67
2021/04/28 09:51:52;;;;;;;20.58;11.27;;;18.70;1.00;;;;;;5031288;28;20041;-65
2021/04/28 09:54:42;;;;;;;30.63;12.05;;;18.60;1.00;;;;;;5035313;28;20080;-66
2021/04/28 09:57:40;;;;;;;16.95;10.40;;;18.60;1.00;;;;;;5027324;28;20183;-66
2021/04/28 10:00:29;;;;;;;32.72;10.90;;;18.50;1.00;;;;;;5026950;28;20124;-66
2021/04/28 10:03:18;;;;;;;16.23;8.65;;;19.00;1.00;;;;;;5013913;23;20611;-64
2021/04/28 10:06:06;;;;;;;16.95;9.30;;;18.90;1.00;;;;;;5013543;28;20037;-65
2021/04/28 10:08:54;;;;;;;14.43;8.80;;;19.30;1.00;;;;;;5014669;28;20128;-65
2021/04/28 10:11:41;;;;;;;14.77;8.82;;;19.10;1.00;;;;;;5011745;28;20042;-66
2021/04/28 10:14:29;;;;;;;14.43;8.65;;;19.30;1.00;;;;;;5011752;28;20151;-66
2021/04/28 10:17:18;;;;;;;13.13;8.65;;;19.80;1.00;;;;;;5009624;28;20050;-64
2021/04/28 10:20:08;;;;;;;14.90;8.70;;;19.70;1.00;;;;;;5012706;28;20068;-65
2021/04/28 10:22:57;;;;;;;14.55;8.57;;;19.90;1.00;;;;;;5009756;28;20088;-65
2021/04/28 10:25:47;;;;;;;16.90;9.02;;;19.70;1.00;;;;;;5009664;28;20079;-65
2021/04/28 10:28:36;;;;;;;11.57;7.15;;;20.10;1.00;;;;;;5000639;28;20057;-65
2021/04/28 10:31:24;;;;;;;15.73;7.60;;;20.30;1.00;;;;;;5007543;28;20141;-66
2021/04/28 10:34:12;;;;;;;13.05;7.93;;;19.90;1.00;;;;;;5007956;28;20046;-66
2021/04/28 10:37:05;;;;;;;12.15;8.25;;;19.40;1.00;;;;;;5010236;28;20049;-64
2021/04/28 10:39:55;;;;;;;11.57;7.70;;;19.90;1.00;;;;;;5013612;28;20097;-64
2021/04/28 10:42:43;;;;;;;19.25;9.32;;;19.90;1.00;;;;;;5011101;28;20139;-65
2021/04/28 10:45:37;;;;;;;16.15;10.00;;;19.60;1.00;;;;;;5017833;28;20180;-64
2021/04/28 10:48:39;;;;;;;17.73;9.98;;;19.40;1.00;;;;;;5008978;28;20056;-65
2021/04/28 10:51:38;;;;;;;17.15;9.82;;;19.50;1.00;;;;;;5008469;28;20551;-66
2021/04/28 10:54:26;;;;;;;20.55;9.75;;;19.60;1.00;;;;;;5008505;28;20108;-65
2021/04/28 10:57:15;;;;;;;62.60;13.52;;;20.00;1.00;;;;;;5004387;28;20525;-66
2021/04/28 11:00:25;;;;;;;37.50;12.10;;;19.90;1.00;;;;;;5010961;28;20620;-66
2021/04/28 11:03:28;;;;;;;50.22;12.15;;;19.50;1.00;;;;;;5010021;28;20073;-65
2021/04/28 11:06:32;;;;;;;21.48;10.05;;;19.80;1.00;;;;;;5013294;28;20080;-65
2021/04/28 11:09:21;;;;;;;18.75;9.85;;;19.70;1.00;;;;;;5013765;28;20048;-65
2021/04/28 11:12:09;;;;;;;15.43;10.30;;;20.00;1.00;;;;;;5005929;28;20052;-65
2021/04/28 11:14:57;;;;;;;16.50;9.02;;;20.40;1.00;;;;;;5010671;28;20402;-66
2021/04/28 11:17:45;;;;;;;14.75;8.20;;;20.50;1.00;;;;;;5001671;28;20214;-66
2021/04/28 11:20:32;;;;;;;13.82;8.80;;;20.50;1.00;;;;;;5006252;28;20440;-66
2021/04/28 11:23:22;;;;;;;13.93;9.23;;;20.50;1.00;;;;;;5004532;28;20132;-67
2021/04/28 11:26:33;;;;;;;13.73;8.70;;;20.20;1.00;;;;;;5011314;28;20420;-64
2021/04/28 11:29:22;;;;;;;51.97;13.25;;;19.90;1.00;;;;;;5006502;28;20121;-64
2021/04/28 11:32:20;;;;;;;16.52;9.48;;;19.80;1.00;;;;;;5001538;28;20184;-65
2021/04/28 11:35:13;;;;;;;13.52;8.60;;;19.70;1.00;;;;;;5009274;28;20484;-64
2021/04/28 11:38:04;;;;;;;12.90;8.07;;;19.90;1.00;;;;;;5007746;28;20188;-64
2021/04/28 11:40:55;;;;;;;17.40;8.30;;;20.10;1.00;;;;;;5006215;28;20396;-64
2021/04/28 11:43:47;;;;;;;13.98;8.57;;;20.80;1.00;;;;;;5003509;28;20544;-64
2021/04/28 11:46:36;;;;;;;14.70;8.43;;;20.80;1.00;;;;;;5004103;28;20053;-65
2021/04/28 11:49:24;;;;;;;10.93;8.48;;;20.90;1.00;;;;;;5008830;28;20077;-65
2021/04/28 11:52:12;;;;;;;11.77;8.10;;;20.80;1.00;;;;;;5004883;28;20357;-65
2021/04/28 11:55:00;;;;;;;12.00;8.57;;;20.80;1.00;;;;;;5015148;28;20144;-65
2021/04/28 11:57:48;;;;;;;14.57;8.70;;;20.50;1.00;;;;;;5004631;28;20046;-65
2021/04/28 12:00:36;;;;;;;20.67;8.27;;;20.50;1.00;;;;;;5008348;28;20042;-65
2021/04/28 12:03:23;;;;;;;11.90;7.65;;;20.70;1.00;;;;;;5003660;28;20152;-65
2021/04/28 12:06:26;;;;;;;14.85;7.95;;;20.80;1.00;;;;;;5007875;28;20053;-65
2021/04/28 12:09:44;;;;;;;20.63;8.40;;;20.60;1.00;;;;;;5011575;28;20037;-65
2021/04/28 12:12:32;;;;;;;15.57;9.43;;;20.60;1.00;;;;;;4999367;28;20342;-64
2021/04/28 12:15:20;;;;;;;13.55;8.20;;;20.30;1.00;;;;;;5003921;28;20142;-65
2021/04/28 12:18:08;;;;;;;13.15;8.63;;;20.60;1.00;;;;;;5006768;28;20141;-65
2021/04/28 12:20:57;;;;;;;12.35;8.00;;;20.80;1.00;;;;;;5008588;28;20037;-66
2021/04/28 12:23:57;;;;;;;12.80;8.77;;;20.90;1.00;;;;;;5005445;28;20212;-65
2021/04/28 12:27:10;;;;;;;16.45;9.82;;;20.60;1.00;;;;;;5005392;28;20037;-65
2021/04/28 12:29:59;;;;;;;13.40;8.73;;;20.00;1.00;;;;;;5012220;28;20045;-66
2021/04/28 12:32:48;;;;;;;12.30;9.13;;;20.80;1.00;;;;;;5001443;28;20053;-65
2021/04/28 12:35:36;;;;;;;18.17;8.35;;;20.90;1.00;;;;;;5017081;28;20100;-64
2021/04/28 12:38:23;;;;;;;13.05;7.88;;;21.10;1.00;;;;;;5007707;28;20042;-65
2021/04/28 12:41:11;;;;;;;13.05;9.05;;;21.40;1.00;;;;;;5003051;28;20229;-65
2021/04/28 12:43:59;;;;;;;12.40;8.30;;;21.30;1.00;;;;;;5005489;28;20537;-65
2021/04/28 12:46:47;;;;;;;11.10;8.02;;;21.40;1.00;;;;;;5003963;28;20049;-64
2021/04/28 12:49:36;;;;;;;15.35;8.20;;;21.10;1.00;;;;;;5007189;28;20556;-65
2021/04/28 12:52:23;;;;;;;16.40;7.75;;;21.00;1.00;;;;;;4959770;28;20157;-65
2021/04/28 12:55:26;;;;;;;13.18;8.07;;;21.40;1.00;;;;;;5003569;28;20842;-66
2021/04/28 12:58:16;;;;;;;13.00;8.10;;;21.10;1.00;;;;;;5006355;28;20103;-66
2021/04/28 13:01:14;;;;;;;14.07;8.10;;;21.30;1.00;;;;;;5008019;28;20087;-65
2021/04/28 13:04:01;;;;;;;15.75;8.65;;;21.30;1.00;;;;;;4999623;28;20077;-66
2021/04/28 13:06:50;;;;;;;12.18;8.43;;;21.10;1.00;;;;;;5003057;28;20053;-65
2021/04/28 13:09:45;;;;;;;15.15;8.38;;;20.30;1.00;;;;;;5010154;28;20056;-65
2021/04/28 13:12:35;;;;;;;15.70;8.02;;;20.30;1.00;;;;;;4999659;28;20049;-65
2021/04/28 13:15:39;;;;;;;12.27;7.72;;;20.90;1.00;;;;;;5009536;28;20657;-66
2021/04/28 13:18:26;;;;;;;12.35;8.00;;;21.30;1.00;;;;;;5005396;28;20132;-66
2021/04/28 13:21:25;;;;;;;12.82;8.48;;;21.30;1.00;;;;;;5006957;28;20604;-65
2021/04/28 13:24:15;;;;;;;14.73;8.75;;;21.00;1.00;;;;;;4999947;28;20051;-66
2021/04/28 13:27:05;;;;;;;12.25;8.30;;;21.40;1.00;;;;;;4997366;28;20046;-65
2021/04/28 13:29:56;;;;;;;14.02;8.27;;;21.50;1.00;;;;;;5011729;28;20499;-65
2021/04/28 13:32:45;;;;;;;13.93;8.77;;;21.60;1.00;;;;;;4999666;28;20049;-65
2021/04/28 13:35:34;;;;;;;15.13;7.78;;;20.70;1.00;;;;;;5010728;28;20089;-65
2021/04/28 13:38:26;;;;;;;13.90;7.70;;;21.40;1.00;;;;;;5004312;28;20069;-66
2021/04/28 13:41:13;;;;;;;13.43;7.70;;;21.60;1.00;;;;;;5006058;28;20144;-66
2021/04/28 13:44:02;;;;;;;15.50;8.48;;;21.70;1.00;;;;;;5002005;28;20046;-66
2021/04/28 13:46:49;;;;;;;10.05;7.38;;;21.80;1.00;;;;;;5003385;28;20049;-65
2021/04/28 13:49:38;;;;;;;13.70;7.93;;;21.50;1.00;;;;;;5012894;28;20041;-68
2021/04/28 13:52:26;;;;;;;13.23;7.55;;;21.90;1.00;;;;;;5003961;28;20049;-67
2021/04/28 13:55:13;;;;;;;13.05;7.40;;;22.10;1.00;;;;;;5003651;28;20053;-68
2021/04/28 13:58:00;;;;;;;10.90;7.00;;;22.10;1.00;;;;;;5001315;28;20505;-68
2021/04/28 14:00:48;;;;;;;13.23;7.18;;;21.90;1.00;;;;;;5009182;28;20087;-67
2021/04/28 14:03:35;;;;;;;9.35;6.82;;;22.30;1.00;;;;;;5002119;28;20893;-69
2021/04/28 14:06:24;;;;;;;12.05;6.68;;;22.50;1.00;;;;;;5009125;28;20496;-68
2021/04/28 14:09:13;;;;;;;13.85;7.88;;;22.30;1.00;;;;;;5011558;28;20059;-68
2021/04/28 14:12:00;;;;;;;11.27;7.07;;;22.30;1.00;;;;;;5003627;28;20053;-69
2021/04/28 14:14:47;;;;;;;10.38;7.50;;;21.80;1.00;;;;;;5007646;28;20528;-68
2021/04/28 14:17:35;;;;;;;10.70;7.70;;;21.90;1.00;;;;;;5004899;28;20057;-69
2021/04/28 14:20:23;;;;;;;9.18;6.80;;;21.70;1.00;;;;;;5014899;28;20462;-68
2021/04/28 14:23:11;;;;;;;12.73;5.63;;;21.60;1.00;;;;;;5001143;28;20045;-68
2021/04/28 14:25:58;;;;;;;13.27;6.72;;;21.80;1.00;;;;;;5013959;28;20045;-68
2021/04/28 14:28:45;;;;;;;7.53;5.78;;;21.60;1.00;;;;;;5007331;28;20181;-68
2021/04/28 14:31:32;;;;;;;13.57;6.95;;;21.80;1.00;;;;;;5011398;28;20058;-67
2021/04/28 14:34:20;;;;;;;14.10;7.22;;;21.90;1.00;;;;;;5004774;28;20057;-68
2021/04/28 14:37:07;;;;;;;16.75;6.78;;;22.00;1.00;;;;;;5010577;28;20057;-69
2021/04/28 14:39:55;;;;;;;10.45;6.22;;;22.40;1.00;;;;;;5013232;28;20050;-68
2021/04/28 14:42:43;;;;;;;9.18;6.43;;;22.50;1.00;;;;;;5005168;28;20380;-69